Time;durP1;ratioP1;P1;durP2;ratioP2;P2;SDS_P1;SDS_P2;PMS_P1;PMS_P2;Temp;Humidity;BMP_temperature;BMP_pressure;BME280_temperature;BME280_humidity;BME280_pressure;Samples;Min_cycle;Max_cycle;Signal;HPM_P1;HPM_P2
2022/12/01 00:01:08;;;;;;;43.93;18.73;;;0.90;99.90;0.60;101570.00;;;;4990746;27;88994;-67
2022/12/01 00:03:33;;;;;;;48.60;19.53;;;0.80;99.90;0.60;101566.00;;;;4973374;28;87914;-65
2022/12/01 00:06:05;;;;;;;49.13;20.50;;;0.90;99.90;0.60;101569.00;;;;4990606;27;88823;-68
2022/12/01 00:08:32;;;;;;;48.47;20.50;;;0.80;99.90;0.60;101563.00;;;;4989151;27;87998;-68
2022/12/01 00:11:10;;;;;;;43.33;18.87;;;0.90;99.90;0.50;101573.00;;;;4988957;27;94545;-67
2022/12/01 00:13:36;;;;;;;49.17;21.77;;;0.80;99.90;0.50;101575.00;;;;4990203;27;87847;-66
2022/12/01 00:16:15;;;;;;;38.77;19.87;;;0.80;99.90;0.50;101570.00;;;;4986966;27;113535;-68
2022/12/01 00:18:42;;;;;;;36.07;18.03;;;0.80;99.90;0.40;101566.00;;;;4976729;28;99865;-66
2022/12/01 00:21:14;;;;;;;47.90;18.60;;;0.80;99.90;0.40;101567.00;;;;4991129;27;88446;-66
2022/12/01 00:23:43;;;;;;;44.57;19.17;;;0.60;99.90;0.40;101571.00;;;;4982222;27;87666;-66
2022/12/01 00:26:09;;;;;;;35.43;19.37;;;0.70;99.90;0.30;101571.00;;;;4989402;27;88050;-67
2022/12/01 00:28:34;;;;;;;33.97;18.87;;;0.60;99.90;0.40;101565.00;;;;4985529;28;108084;-66
2022/12/01 00:31:00;;;;;;;46.87;19.67;;;0.60;99.90;0.30;101557.00;;;;4987635;28;117524;-66
2022/12/01 00:33:25;;;;;;;51.10;20.00;;;0.80;99.90;0.30;101557.00;;;;4987463;28;108093;-66
2022/12/01 00:35:58;;;;;;;45.17;18.27;;;0.70;99.90;0.20;101561.00;;;;4989187;27;112930;-67
2022/12/01 00:38:24;;;;;;;40.47;18.23;;;0.70;99.90;0.20;101561.00;;;;4981499;27;87921;-67
2022/12/01 00:40:50;;;;;;;42.40;19.30;;;0.60;99.90;0.30;101562.00;;;;4982112;27;89039;-67
2022/12/01 00:43:16;;;;;;;43.27;20.33;;;0.60;99.90;0.30;101563.00;;;;4990802;27;117078;-67
2022/12/01 00:45:42;;;;;;;54.03;19.70;;;0.70;99.90;0.20;101563.00;;;;4993276;27;87678;-66
2022/12/01 00:48:08;;;;;;;51.27;17.33;;;0.60;99.90;0.30;101565.00;;;;4983602;27;109944;-67
2022/12/01 00:50:34;;;;;;;44.47;19.10;;;0.60;99.90;0.30;101568.00;;;;4986993;27;110705;-66
2022/12/01 00:52:59;;;;;;;32.17;16.33;;;0.60;99.90;0.40;101568.00;;;;4987510;27;87866;-66
2022/12/01 00:55:25;;;;;;;40.20;19.97;;;0.60;99.90;0.40;101558.00;;;;4991810;28;112259;-67
2022/12/01 00:57:51;;;;;;;50.27;20.57;;;0.70;99.90;0.40;101571.00;;;;4985143;27;88080;-66
2022/12/01 01:00:17;;;;;;;46.73;22.70;;;0.60;99.90;0.40;101566.00;;;;4990439;27;117009;-67
2022/12/01 01:02:42;;;;;;;29.97;17.33;;;0.80;99.90;0.40;101575.00;;;;4988183;28;107404;-66
2022/12/01 01:05:08;;;;;;;47.20;22.67;;;0.80;99.90;0.40;101576.00;;;;4988385;27;111858;-67
2022/12/01 01:07:34;;;;;;;43.67;19.87;;;0.80;99.90;0.40;101563.00;;;;4988387;27;99408;-67
2022/12/01 01:10:00;;;;;;;50.40;20.37;;;0.70;99.90;0.30;101574.00;;;;4989522;28;117870;-68
2022/12/01 01:12:27;;;;;;;39.47;20.07;;;0.60;99.90;0.30;101581.00;;;;4986284;27;117000;-67
2022/12/01 01:14:52;;;;;;;40.67;18.50;;;0.60;99.90;0.30;101582.00;;;;4989327;27;103292;-66
2022/12/01 01:17:18;;;;;;;47.63;20.80;;;0.70;99.90;0.40;101580.00;;;;4988103;28;87556;-67
2022/12/01 01:19:44;;;;;;;39.00;19.83;;;0.70;99.90;0.40;101580.00;;;;4990195;28;89655;-66
2022/12/01 01:22:10;;;;;;;43.63;19.87;;;0.60;99.90;0.40;101573.00;;;;4987392;27;108416;-67
2022/12/01 01:24:36;;;;;;;37.43;17.73;;;0.60;99.90;0.40;101575.00;;;;4984578;27;98818;-66
2022/12/01 01:27:04;;;;;;;35.03;17.23;;;0.70;99.90;0.40;101579.00;;;;4990510;27;98480;-67
2022/12/01 01:29:31;;;;;;;37.30;19.07;;;0.80;99.90;0.40;101584.00;;;;4992875;28;88409;-67
2022/12/01 01:31:56;;;;;;;36.93;17.83;;;0.90;99.90;0.40;101572.00;;;;4975817;28;88021;-67
2022/12/01 01:34:22;;;;;;;43.13;20.73;;;0.70;99.90;0.40;101574.00;;;;4991265;27;87704;-66
2022/12/01 01:36:48;;;;;;;43.27;18.20;;;0.70;99.90;0.40;101566.00;;;;4989945;27;108545;-66
2022/12/01 01:39:14;;;;;;;47.13;20.63;;;0.80;99.90;0.40;101576.00;;;;4992038;27;117251;-67
2022/12/01 01:41:39;;;;;;;37.73;20.13;;;0.80;99.90;0.40;101568.00;;;;4977957;28;117087;-67
2022/12/01 01:44:50;;;;;;;50.60;18.53;;;0.70;99.90;0.40;101580.00;;;;4994407;27;110761;-66
2022/12/01 01:47:31;;;;;;;36.73;18.00;;;0.70;99.90;0.40;101570.00;;;;4993341;27;88115;-67
2022/12/01 01:50:07;;;;;;;39.43;17.13;;;0.80;99.90;0.40;101574.00;;;;4987333;27;109075;-68
2022/12/01 01:52:36;;;;;;;47.23;18.43;;;0.70;99.90;0.40;101565.00;;;;4986930;27;88543;-68
2022/12/01 01:55:02;;;;;;;48.10;20.10;;;0.70;99.90;0.40;101569.00;;;;4980260;27;87814;-66
2022/12/01 01:57:32;;;;;;;43.43;17.90;;;0.70;99.90;0.40;101566.00;;;;4974398;28;104936;-66
2022/12/01 02:00:15;;;;;;;41.27;17.77;;;0.70;99.90;0.30;101573.00;;;;4980750;28;88913;-67
2022/12/01 02:02:43;;;;;;;40.17;19.40;;;0.60;99.90;0.40;101572.00;;;;4983044;28;103859;-67
2022/12/01 02:05:43;;;;;;;50.37;20.20;;;0.80;99.90;0.30;101583.00;;;;4991848;27;87972;-66
2022/12/01 02:08:11;;;;;;;48.00;21.03;;;0.70;99.90;0.30;101574.00;;;;4982043;28;87698;-67
2022/12/01 02:11:11;;;;;;;40.70;18.43;;;0.70;99.90;0.30;101574.00;;;;4994191;27;89715;-66
2022/12/01 02:13:54;;;;;;;44.00;19.30;;;0.70;99.90;0.30;101569.00;;;;4983248;27;109675;-67
2022/12/01 02:16:39;;;;;;;33.27;17.47;;;0.70;99.90;0.30;101563.00;;;;4980310;28;88538;-67
2022/12/01 02:19:44;;;;;;;53.90;20.80;;;0.70;99.90;0.30;101571.00;;;;4982370;27;101692;-66
2022/12/01 02:22:42;;;;;;;36.23;17.83;;;0.60;99.90;0.30;101570.00;;;;4978232;27;109738;-66
2022/12/01 02:25:49;;;;;;;41.23;17.23;;;0.70;99.90;0.30;101568.00;;;;4990063;27;102243;-65
2022/12/01 02:28:52;;;;;;;33.37;17.07;;;0.60;99.90;0.30;101575.00;;;;4981383;28;105234;-65
2022/12/01 02:31:38;;;;;;;37.70;17.10;;;0.70;99.90;0.30;101568.00;;;;4993786;28;87184;-66
2022/12/01 02:34:38;;;;;;;38.20;17.37;;;0.70;99.90;0.30;101567.00;;;;4975588;28;104132;-66
2022/12/01 02:37:19;;;;;;;34.33;19.80;;;0.70;99.90;0.30;101569.00;;;;4993006;28;88238;-67
2022/12/01 02:40:10;;;;;;;40.70;16.50;;;0.60;99.90;0.30;101574.00;;;;4978349;28;107974;-67
2022/12/01 02:43:01;;;;;;;32.50;16.70;;;0.70;99.90;0.30;101571.00;;;;4994486;27;87920;-67
2022/12/01 02:45:53;;;;;;;37.13;17.37;;;0.70;99.90;0.30;101568.00;;;;4980935;28;87811;-67
2022/12/01 02:48:33;;;;;;;38.57;19.73;;;0.60;99.90;0.30;101567.00;;;;4976467;28;87827;-68
2022/12/01 02:51:22;;;;;;;41.80;19.37;;;0.70;99.90;0.30;101574.00;;;;4988699;27;108087;-67
2022/12/01 02:53:48;;;;;;;29.60;16.20;;;0.60;99.90;0.30;101575.00;;;;4977268;28;101370;-66
2022/12/01 02:56:16;;;;;;;35.40;16.30;;;0.60;99.90;0.20;101574.00;;;;4980269;28;118863;-66
2022/12/01 02:58:42;;;;;;;37.97;15.97;;;0.60;99.90;0.20;101577.00;;;;4975613;28;88028;-66
2022/12/01 03:01:20;;;;;;;39.10;16.90;;;0.50;99.90;0.10;101581.00;;;;4975945;28;87940;-67
2022/12/01 03:04:04;;;;;;;41.63;17.87;;;0.50;99.90;0.10;101565.00;;;;4989597;27;88148;-67
2022/12/01 03:06:59;;;;;;;49.10;19.93;;;0.50;99.90;0.00;101584.00;;;;4974246;28;90423;-67
2022/12/01 03:10:04;;;;;;;36.40;17.80;;;0.40;99.90;0.00;101590.00;;;;4980443;28;111548;-66
2022/12/01 03:13:05;;;;;;;32.87;16.83;;;0.50;99.90;0.00;101575.00;;;;4990603;27;87938;-67
2022/12/01 03:16:18;;;;;;;42.17;15.43;;;0.40;99.90;0.00;101575.00;;;;4980365;28;87764;-66
2022/12/01 03:19:33;;;;;;;38.77;16.90;;;0.30;99.90;-0.10;101582.00;;;;4950077;27;88223;-66
2022/12/01 03:22:13;;;;;;;33.57;14.53;;;0.40;99.90;-0.10;101588.00;;;;4991122;27;87940;-66
2022/12/01 03:24:43;;;;;;;32.30;14.73;;;0.30;99.90;-0.10;101582.00;;;;4972683;28;87666;-67
2022/12/01 03:27:12;;;;;;;34.17;16.33;;;0.40;99.90;-0.10;101589.00;;;;4973898;28;87317;-66
2022/12/01 03:29:44;;;;;;;43.50;17.83;;;0.20;99.90;-0.10;101576.00;;;;4975171;28;88259;-66
2022/12/01 03:32:19;;;;;;;40.27;16.10;;;0.40;99.90;-0.10;101581.00;;;;4974910;27;88867;-66
2022/12/01 03:35:15;;;;;;;31.60;16.40;;;0.20;99.90;-0.10;101576.00;;;;4990706;27;89093;-67
2022/12/01 03:37:47;;;;;;;36.83;18.53;;;0.20;99.90;-0.10;101584.00;;;;4977611;27;87748;-67
2022/12/01 03:40:17;;;;;;;33.13;19.17;;;0.30;99.90;-0.10;101572.00;;;;4993886;27;88304;-66
2022/12/01 03:42:49;;;;;;;33.23;16.10;;;0.20;99.90;-0.10;101577.00;;;;4988592;27;111773;-66
2022/12/01 03:45:23;;;;;;;37.17;18.13;;;0.30;99.90;0.00;101580.00;;;;4978628;27;107225;-67
2022/12/01 03:47:49;;;;;;;38.30;17.77;;;0.30;99.90;0.00;101575.00;;;;4978873;27;96834;-66
2022/12/01 03:50:17;;;;;;;46.53;16.97;;;0.30;99.90;-0.10;101581.00;;;;4993492;27;118202;-67
2022/12/01 03:53:18;;;;;;;33.00;15.37;;;0.90;99.90;-0.10;101579.00;;;;4993927;28;88413;-66
2022/12/01 03:55:50;;;;;;;28.70;16.30;;;0.20;99.90;-0.10;101583.00;;;;4993050;27;87870;-66
2022/12/01 03:58:26;;;;;;;30.90;16.23;;;0.20;99.90;-0.10;101588.00;;;;4991109;28;87837;-67
2022/12/01 04:00:56;;;;;;;44.07;17.77;;;0.30;99.90;-0.10;101583.00;;;;4975321;28;109802;-66
2022/12/01 04:03:24;;;;;;;40.73;17.63;;;0.20;99.90;-0.10;101577.00;;;;4974650;28;89540;-67
2022/12/01 04:05:50;;;;;;;34.43;16.77;;;0.30;99.90;-0.10;101576.00;;;;4992052;27;94614;-66
2022/12/01 04:08:17;;;;;;;33.33;17.70;;;0.20;99.90;-0.10;101580.00;;;;4976259;27;108703;-66
2022/12/01 04:10:42;;;;;;;31.13;15.90;;;0.20;99.90;-0.20;101583.00;;;;4988650;27;117936;-67
2022/12/01 04:13:15;;;;;;;36.07;17.07;;;0.20;99.90;-0.20;101584.00;;;;4990891;27;116607;-67
2022/12/01 04:15:42;;;;;;;23.97;13.93;;;0.10;99.90;-0.20;101582.00;;;;4985540;28;88079;-66
2022/12/01 04:18:07;;;;;;;27.37;15.07;;;0.20;99.90;-0.20;101585.00;;;;4991503;27;87299;-67
2022/12/01 04:20:33;;;;;;;29.37;15.70;;;0.10;99.90;-0.20;101577.00;;;;4988321;28;117585;-67
2022/12/01 04:22:59;;;;;;;31.30;16.57;;;0.20;99.90;-0.20;101580.00;;;;4990246;28;88954;-67
2022/12/01 04:25:24;;;;;;;38.00;16.33;;;0.00;99.90;-0.20;101571.00;;;;4985491;27;113058;-66
2022/12/01 04:27:50;;;;;;;32.27;17.07;;;0.20;99.90;-0.20;101573.00;;;;4991392;27;109341;-66
2022/12/01 04:30:16;;;;;;;31.40;14.40;;;0.20;99.90;-0.20;101570.00;;;;4990108;27;117713;-66
2022/12/01 04:32:43;;;;;;;23.47;12.33;;;0.10;99.90;-0.10;101577.00;;;;4989262;27;107077;-66
2022/12/01 04:35:11;;;;;;;47.87;18.43;;;0.20;99.90;-0.10;101566.00;;;;4991361;28;98602;-66
2022/12/01 04:37:38;;;;;;;34.50;15.63;;;0.10;99.90;-0.10;101576.00;;;;4972317;28;87946;-66
2022/12/01 04:40:04;;;;;;;36.73;17.97;;;0.20;99.90;-0.10;101579.00;;;;4975549;27;88106;-66
2022/12/01 04:42:30;;;;;;;35.97;16.93;;;0.20;99.90;-0.10;101576.00;;;;4988209;28;106102;-66
2022/12/01 04:44:56;;;;;;;29.63;16.07;;;0.20;99.90;-0.10;101580.00;;;;4990747;27;113616;-67
2022/12/01 04:47:22;;;;;;;30.30;15.97;;;0.20;99.90;-0.10;101576.00;;;;4978387;28;87814;-66
2022/12/01 04:49:48;;;;;;;40.33;17.33;;;0.30;99.90;-0.10;101579.00;;;;4988884;28;119482;-67
2022/12/01 04:52:13;;;;;;;34.83;15.53;;;0.20;99.90;-0.10;101586.00;;;;4988391;27;119582;-66
2022/12/01 04:54:39;;;;;;;34.00;16.77;;;0.20;99.90;-0.10;101597.00;;;;4987775;27;106758;-66
2022/12/01 04:57:05;;;;;;;31.73;14.53;;;0.30;99.90;-0.10;101612.00;;;;4989641;27;108383;-66
2022/12/01 04:59:30;;;;;;;43.23;18.83;;;0.30;99.90;-0.10;101603.00;;;;4989905;27;118587;-66
2022/12/01 05:01:56;;;;;;;35.43;16.93;;;0.40;99.90;-0.10;101600.00;;;;4988464;28;116714;-66
2022/12/01 05:04:22;;;;;;;35.67;17.70;;;0.30;99.90;-0.10;101595.00;;;;4991269;27;87878;-66
2022/12/01 05:06:47;;;;;;;31.83;15.37;;;0.30;99.90;0.00;101595.00;;;;4991117;27;87329;-67
2022/12/01 05:09:14;;;;;;;26.57;16.67;;;0.40;99.90;0.00;101600.00;;;;4988750;27;109596;-67
2022/12/01 05:11:40;;;;;;;31.50;17.17;;;0.30;99.90;0.00;101604.00;;;;4991438;28;88457;-66
2022/12/01 05:14:06;;;;;;;34.10;16.10;;;0.30;99.90;0.00;101606.00;;;;4988858;27;102003;-67
2022/12/01 05:16:32;;;;;;;33.27;17.40;;;0.30;99.90;0.00;101595.00;;;;4987282;27;99828;-67
2022/12/01 05:21:49;;;;;;;31.40;15.30;;;0.30;99.90;0.00;101595.00;;;;4987796;28;88253;-67
2022/12/01 05:24:16;;;;;;;35.50;16.83;;;0.40;99.90;0.00;101603.00;;;;4987540;27;87934;-66
2022/12/01 05:26:42;;;;;;;32.33;15.63;;;0.30;99.90;0.00;101601.00;;;;4986843;27;87822;-67
2022/12/01 05:29:09;;;;;;;40.70;18.70;;;0.30;99.90;0.00;101598.00;;;;4983947;28;89017;-67
2022/12/01 05:31:35;;;;;;;24.07;16.67;;;0.30;99.90;0.00;101598.00;;;;4987258;28;112060;-67
2022/12/01 05:34:00;;;;;;;38.77;18.80;;;0.40;99.90;0.00;101607.00;;;;4990257;28;101609;-67
2022/12/01 05:36:26;;;;;;;34.13;15.77;;;0.40;99.90;0.00;101602.00;;;;4987175;28;108469;-66
2022/12/01 05:38:53;;;;;;;24.23;13.73;;;0.30;99.90;0.10;101601.00;;;;4982385;27;118978;-67
2022/12/01 05:41:19;;;;;;;42.50;18.47;;;0.30;99.90;0.00;101604.00;;;;4987976;27;89852;-68
2022/12/01 05:43:44;;;;;;;27.17;15.13;;;0.40;99.90;0.10;101614.00;;;;4986874;27;88543;-67
2022/12/01 05:46:10;;;;;;;38.30;19.10;;;0.40;99.90;0.10;101605.00;;;;4990253;27;108064;-67
2022/12/01 05:48:36;;;;;;;39.73;19.83;;;0.40;99.90;0.10;101602.00;;;;4968938;28;116977;-67
2022/12/01 05:51:13;;;;;;;31.07;16.90;;;0.40;99.90;0.10;101613.00;;;;4983051;27;87834;-66
2022/12/01 05:53:39;;;;;;;35.93;17.17;;;0.50;99.90;0.10;101606.00;;;;4974089;28;87889;-67
2022/12/01 05:56:06;;;;;;;35.10;17.93;;;0.50;99.90;0.10;101612.00;;;;4992241;27;87370;-67
2022/12/01 05:58:33;;;;;;;43.60;17.70;;;0.40;99.90;0.20;101600.00;;;;4989486;27;89417;-66
2022/12/01 06:00:58;;;;;;;35.33;16.97;;;0.40;99.90;0.20;101609.00;;;;4986680;27;88085;-66
2022/12/01 06:03:24;;;;;;;28.03;17.80;;;0.40;99.90;0.20;101597.00;;;;4990735;27;113225;-67
2022/12/01 06:05:50;;;;;;;33.43;18.03;;;0.60;99.90;0.20;101602.00;;;;4988041;27;108955;-67
2022/12/01 06:08:16;;;;;;;32.90;18.73;;;0.40;99.90;0.20;101604.00;;;;4993243;27;87903;-67
2022/12/01 06:10:42;;;;;;;39.83;18.80;;;0.60;99.90;0.20;101602.00;;;;4987277;28;116816;-67
2022/12/01 06:13:07;;;;;;;30.23;17.00;;;0.50;99.90;0.20;101590.00;;;;4979377;27;89027;-68
2022/12/01 06:15:33;;;;;;;30.93;17.10;;;0.60;99.90;0.20;101594.00;;;;4991326;28;87767;-66
2022/12/01 06:17:59;;;;;;;34.10;17.60;;;0.50;99.90;0.20;101600.00;;;;4987589;27;117840;-67
2022/12/01 06:20:24;;;;;;;37.03;20.10;;;0.50;99.90;0.20;101606.00;;;;4991821;28;117754;-67
2022/12/01 06:22:50;;;;;;;37.17;16.37;;;0.50;99.90;0.30;101608.00;;;;4992782;28;113073;-66
2022/12/01 06:25:16;;;;;;;37.13;17.57;;;0.60;99.90;0.30;101617.00;;;;4991974;28;109307;-68
2022/12/01 06:27:41;;;;;;;32.43;14.47;;;0.60;99.90;0.30;101620.00;;;;4991200;27;89845;-67
2022/12/01 06:30:08;;;;;;;35.27;17.80;;;0.60;99.90;0.30;101612.00;;;;4990153;27;118828;-66
2022/12/01 06:32:34;;;;;;;24.23;14.97;;;0.70;99.90;0.30;101614.00;;;;4990421;27;103446;-67
2022/12/01 06:34:59;;;;;;;40.43;18.43;;;0.60;99.90;0.30;101619.00;;;;4988630;27;108238;-67
2022/12/01 06:37:26;;;;;;;36.07;19.00;;;0.50;99.90;0.30;101609.00;;;;4976931;28;101354;-67
2022/12/01 06:39:52;;;;;;;36.77;17.27;;;0.60;99.90;0.30;101631.00;;;;4992595;27;105955;-67
2022/12/01 06:42:17;;;;;;;29.40;16.50;;;0.60;99.90;0.30;101629.00;;;;4991314;28;110911;-67
2022/12/01 06:44:43;;;;;;;37.03;17.40;;;0.60;99.90;0.30;101625.00;;;;4993645;27;107868;-66
2022/12/01 06:47:09;;;;;;;38.70;17.70;;;1.20;99.90;0.30;101630.00;;;;4993386;28;88229;-66
2022/12/01 06:49:35;;;;;;;39.67;17.17;;;0.70;99.90;0.30;101621.00;;;;4988830;27;98414;-67
2022/12/01 06:52:00;;;;;;;33.50;16.87;;;0.50;99.90;0.30;101634.00;;;;4992973;27;88790;-66
2022/12/01 06:54:26;;;;;;;34.10;16.77;;;0.50;99.90;0.30;101642.00;;;;4995442;28;108633;-66
2022/12/01 06:56:52;;;;;;;30.93;17.47;;;0.60;99.90;0.30;101638.00;;;;4991107;28;95338;-66
2022/12/01 06:59:18;;;;;;;36.80;18.20;;;0.50;99.90;0.30;101639.00;;;;4987682;28;115574;-66
2022/12/01 07:01:44;;;;;;;38.43;16.83;;;0.70;99.90;0.30;101644.00;;;;4992652;28;87762;-67
2022/12/01 07:04:10;;;;;;;40.63;19.10;;;0.60;99.90;0.30;101638.00;;;;4994530;27;87844;-67
2022/12/01 07:06:36;;;;;;;35.27;18.90;;;0.70;99.90;0.30;101642.00;;;;4991309;28;113845;-66
2022/12/01 07:09:01;;;;;;;32.03;16.70;;;0.60;99.90;0.30;101646.00;;;;4989243;27;107918;-66
2022/12/01 07:11:27;;;;;;;35.73;18.50;;;0.60;99.90;0.30;101642.00;;;;4987127;28;112848;-66
2022/12/01 07:13:55;;;;;;;30.27;17.30;;;0.60;99.90;0.30;101645.00;;;;4994241;27;92478;-66
2022/12/01 07:16:22;;;;;;;39.93;18.90;;;0.60;99.90;0.30;101652.00;;;;4990499;27;88894;-67
2022/12/01 07:18:47;;;;;;;34.97;18.07;;;0.70;99.90;0.30;101650.00;;;;4994004;28;89401;-66
2022/12/01 07:21:14;;;;;;;38.33;17.87;;;0.60;99.90;0.30;101642.00;;;;4989627;27;112217;-66
2022/12/01 07:23:40;;;;;;;37.03;17.73;;;0.70;99.90;0.40;101651.00;;;;4989710;28;90384;-65
2022/12/01 07:26:12;;;;;;;34.77;17.13;;;0.60;99.90;0.40;101654.00;;;;4991482;28;107422;-66
2022/12/01 07:28:38;;;;;;;27.27;14.87;;;0.60;99.90;0.40;101651.00;;;;4976580;28;88539;-66
2022/12/01 07:31:16;;;;;;;32.53;19.63;;;0.60;99.90;0.40;101651.00;;;;4989114;27;114765;-65
2022/12/01 07:33:42;;;;;;;35.50;17.93;;;0.70;99.90;0.40;101656.00;;;;4990568;28;87052;-66
2022/12/01 07:36:09;;;;;;;38.50;19.00;;;0.70;99.90;0.40;101655.00;;;;4987592;28;117799;-67
2022/12/01 07:38:34;;;;;;;37.37;19.40;;;0.80;99.90;0.40;101650.00;;;;4987889;27;87900;-66
2022/12/01 07:41:06;;;;;;;32.00;19.87;;;0.80;99.90;0.40;101657.00;;;;4979946;28;89030;-66
2022/12/01 07:43:32;;;;;;;37.87;20.40;;;0.70;99.90;0.50;101652.00;;;;4988559;28;88492;-66
2022/12/01 07:46:10;;;;;;;36.67;18.63;;;0.80;99.90;0.50;101652.00;;;;4986588;27;88729;-67
2022/12/01 07:48:38;;;;;;;33.07;16.97;;;0.80;99.90;0.50;101662.00;;;;4990053;28;87892;-67
2022/12/01 07:51:05;;;;;;;39.07;18.40;;;0.70;99.90;0.50;101657.00;;;;4974568;28;87685;-66
2022/12/01 07:53:31;;;;;;;34.90;17.60;;;0.80;99.90;0.50;101654.00;;;;4995757;27;87617;-67
2022/12/01 07:55:58;;;;;;;36.53;20.10;;;0.90;99.90;0.50;101656.00;;;;4993412;27;108006;-66
2022/12/01 07:58:24;;;;;;;34.17;18.27;;;0.80;99.90;0.50;101659.00;;;;4989777;27;87700;-66
2022/12/01 08:00:49;;;;;;;38.10;19.03;;;0.80;99.90;0.60;101653.00;;;;4992955;27;87841;-66
2022/12/01 08:03:15;;;;;;;33.93;20.70;;;0.80;99.90;0.60;101662.00;;;;4993717;27;108522;-67
2022/12/01 08:05:41;;;;;;;34.23;18.43;;;0.90;99.90;0.60;101665.00;;;;4991494;27;89896;-67
2022/12/01 08:08:07;;;;;;;33.03;18.30;;;0.80;99.90;0.60;101662.00;;;;4986995;27;119200;-67
2022/12/01 08:10:32;;;;;;;28.40;17.30;;;0.90;99.90;0.60;101663.00;;;;4987410;27;112970;-67
2022/12/01 08:12:58;;;;;;;35.07;18.63;;;0.90;99.90;0.60;101660.00;;;;4992471;27;87941;-67
2022/12/01 08:15:24;;;;;;;34.83;17.13;;;0.80;99.90;0.60;101665.00;;;;4978325;28;117594;-66
2022/12/01 08:17:49;;;;;;;35.17;19.73;;;1.50;99.90;0.60;101672.00;;;;4987997;27;117427;-66
2022/12/01 08:20:15;;;;;;;37.90;17.17;;;0.90;99.90;0.60;101665.00;;;;4989231;28;112913;-66
2022/12/01 08:22:41;;;;;;;36.07;17.87;;;1.00;99.90;0.60;101669.00;;;;4986412;28;87132;-66
2022/12/01 08:25:07;;;;;;;35.80;20.13;;;0.90;99.90;0.60;101663.00;;;;4989539;27;117155;-66
2022/12/01 08:27:34;;;;;;;36.10;18.00;;;0.90;99.90;0.60;101658.00;;;;4993001;28;90059;-67
2022/12/01 08:29:59;;;;;;;34.50;19.63;;;0.90;99.90;0.60;101663.00;;;;4976503;28;89019;-66
2022/12/01 08:32:25;;;;;;;31.77;19.63;;;0.90;99.90;0.60;101672.00;;;;4973289;28;99173;-66
2022/12/01 08:34:51;;;;;;;39.83;20.00;;;0.90;99.90;0.60;101674.00;;;;4989644;28;88416;-66
2022/12/01 08:37:16;;;;;;;38.73;19.50;;;1.00;99.90;0.60;101676.00;;;;4990487;27;115782;-66
2022/12/01 08:39:42;;;;;;;39.23;19.93;;;0.80;99.90;0.60;101677.00;;;;4990082;27;113121;-66
2022/12/01 08:42:08;;;;;;;36.80;18.93;;;0.90;99.90;0.60;101676.00;;;;4990533;27;107970;-67
2022/12/01 08:44:33;;;;;;;44.10;22.40;;;0.90;99.90;0.60;101674.00;;;;4988475;27;98283;-66
2022/12/01 08:46:59;;;;;;;41.07;21.53;;;1.90;99.90;0.60;101678.00;;;;4985128;27;117508;-66
2022/12/01 08:49:25;;;;;;;37.70;18.87;;;1.00;99.90;0.60;101682.00;;;;4991599;28;112771;-67
2022/12/01 08:51:51;;;;;;;38.03;21.87;;;0.90;99.90;0.70;101671.00;;;;4990028;27;87856;-67
2022/12/01 08:54:16;;;;;;;37.57;20.73;;;0.90;99.90;0.60;101671.00;;;;4983704;28;118723;-66
2022/12/01 08:56:44;;;;;;;41.70;21.13;;;1.00;99.90;0.60;101676.00;;;;4982712;28;99506;-66
2022/12/01 08:59:10;;;;;;;40.23;20.00;;;0.90;99.90;0.70;101673.00;;;;4982252;27;88082;-66
2022/12/01 09:01:50;;;;;;;40.03;20.63;;;1.00;99.90;0.70;101682.00;;;;4992602;27;107085;-67
2022/12/01 09:04:21;;;;;;;33.37;18.13;;;1.00;99.90;0.70;101683.00;;;;4994370;27;88569;-66
2022/12/01 09:06:49;;;;;;;34.23;19.50;;;1.00;99.90;0.70;101682.00;;;;4991795;28;88247;-67
2022/12/01 09:09:22;;;;;;;34.03;18.93;;;1.10;99.90;0.70;101685.00;;;;4991786;27;87727;-67
2022/12/01 09:11:51;;;;;;;32.83;19.23;;;1.00;99.90;0.80;101691.00;;;;4991372;27;87305;-67
2022/12/01 09:14:17;;;;;;;46.03;19.73;;;1.10;99.90;0.80;101681.00;;;;4977517;28;88224;-67
2022/12/01 09:16:45;;;;;;;30.23;16.90;;;1.20;99.90;0.80;101684.00;;;;4987779;27;88728;-67
2022/12/01 09:19:13;;;;;;;35.43;18.10;;;1.20;99.90;0.80;101697.00;;;;4976812;28;88865;-66
2022/12/01 09:21:39;;;;;;;31.17;18.40;;;1.20;99.90;0.90;101687.00;;;;4988619;28;89429;-66
2022/12/01 09:24:06;;;;;;;35.73;18.63;;;1.10;99.90;0.90;101682.00;;;;4989157;27;89118;-66
2022/12/01 09:26:32;;;;;;;53.83;21.70;;;1.20;99.90;0.90;101692.00;;;;4986038;28;88521;-67
2022/12/01 09:29:07;;;;;;;33.90;19.27;;;1.50;99.90;0.90;101687.00;;;;4988454;28;113295;-67
2022/12/01 09:31:34;;;;;;;33.83;17.10;;;1.30;99.90;0.90;101696.00;;;;4988087;27;88028;-67
2022/12/01 09:34:06;;;;;;;36.47;17.93;;;1.20;99.90;0.90;101686.00;;;;4982801;27;88089;-65
2022/12/01 09:36:33;;;;;;;40.30;19.73;;;1.30;99.90;0.90;101683.00;;;;4989676;27;88808;-64
2022/12/01 09:39:00;;;;;;;33.63;18.80;;;1.20;99.90;0.90;101682.00;;;;4990065;27;107745;-68
2022/12/01 09:41:32;;;;;;;31.67;18.13;;;1.10;99.90;1.00;101685.00;;;;4990981;28;87994;-68
2022/12/01 09:44:12;;;;;;;36.67;19.67;;;1.30;99.90;1.00;101682.00;;;;4972632;28;88710;-68
2022/12/01 09:47:02;;;;;;;39.63;18.37;;;1.30;99.90;1.00;101670.00;;;;4981949;28;88843;-67
2022/12/01 09:49:50;;;;;;;39.07;19.50;;;1.40;99.90;1.00;101659.00;;;;4987944;27;105954;-67
2022/12/01 09:52:18;;;;;;;31.00;16.80;;;1.30;99.90;1.00;101668.00;;;;4987560;28;87823;-67
2022/12/01 09:54:45;;;;;;;37.70;18.77;;;1.30;99.90;1.00;101677.00;;;;4992453;27;89094;-67
2022/12/01 09:57:35;;;;;;;34.30;17.53;;;1.40;99.90;1.00;101666.00;;;;4980209;28;87925;-67
2022/12/01 10:00:17;;;;;;;31.50;18.47;;;1.40;99.90;1.00;101662.00;;;;4984938;27;87939;-66
2022/12/01 10:02:52;;;;;;;33.63;16.97;;;1.30;99.90;1.00;101674.00;;;;4979862;28;87209;-67
2022/12/01 10:05:21;;;;;;;30.13;16.20;;;1.30;99.90;1.00;101679.00;;;;4989816;28;110369;-67
2022/12/01 10:08:04;;;;;;;38.87;16.10;;;1.30;99.90;1.00;101670.00;;;;4977287;28;88145;-67
2022/12/01 10:10:37;;;;;;;33.47;16.93;;;1.40;99.90;1.00;101671.00;;;;4977687;28;89189;-67
2022/12/01 10:13:22;;;;;;;23.37;15.80;;;1.30;99.90;1.00;101660.00;;;;4969777;28;91785;-68
2022/12/01 10:16:02;;;;;;;40.20;19.27;;;1.30;99.90;1.00;101662.00;;;;4995980;27;99836;-66
2022/12/01 10:19:10;;;;;;;33.07;17.97;;;1.30;99.90;1.00;101661.00;;;;4988688;27;110578;-67
2022/12/01 10:22:15;;;;;;;34.90;17.47;;;1.30;99.90;1.00;101655.00;;;;4933244;28;105125;-67
2022/12/01 10:25:25;;;;;;;34.57;16.97;;;1.30;99.90;1.00;101657.00;;;;4980709;28;88070;-67
2022/12/01 10:28:16;;;;;;;36.80;18.00;;;1.30;99.90;1.00;101648.00;;;;4949749;27;88032;-66
2022/12/01 10:30:51;;;;;;;39.43;19.17;;;1.30;99.90;1.10;101645.00;;;;4990150;27;88040;-66
2022/12/01 10:33:23;;;;;;;33.50;18.63;;;1.30;99.90;1.10;101642.00;;;;4977406;27;88086;-67
2022/12/01 10:35:49;;;;;;;35.90;18.67;;;1.30;99.90;1.10;101649.00;;;;4987728;28;87961;-67
2022/12/01 10:38:26;;;;;;;37.47;18.07;;;1.40;99.90;1.10;101642.00;;;;4991407;27;89932;-68
2022/12/01 10:40:54;;;;;;;31.83;17.00;;;1.40;99.90;1.10;101651.00;;;;4981315;28;89040;-66
2022/12/01 10:43:32;;;;;;;32.10;18.77;;;1.30;99.90;1.20;101639.00;;;;4986820;27;87784;-66
2022/12/01 10:46:00;;;;;;;33.37;18.23;;;1.40;99.90;1.20;101650.00;;;;4977857;28;100893;-66
2022/12/01 10:48:26;;;;;;;34.47;18.33;;;1.50;99.90;1.20;101642.00;;;;4983208;27;106047;-68
2022/12/01 10:50:55;;;;;;;32.70;16.73;;;1.50;99.90;1.20;101648.00;;;;4994106;28;117279;-68
2022/12/01 10:53:31;;;;;;;28.37;17.07;;;1.40;99.90;1.20;101643.00;;;;4994193;27;87865;-68
2022/12/01 10:56:17;;;;;;;38.00;19.90;;;2.10;99.90;1.20;101638.00;;;;4986892;27;86844;-65
2022/12/01 10:58:55;;;;;;;27.63;16.37;;;1.50;99.90;1.20;101644.00;;;;4998078;27;87925;-68
2022/12/01 11:01:30;;;;;;;32.20;19.10;;;1.40;99.90;1.20;101638.00;;;;4994789;27;111662;-66
2022/12/01 11:04:35;;;;;;;38.23;20.80;;;1.60;99.90;1.30;101639.00;;;;4988553;28;88878;-67